Latest Weather Observations for Gabo Island

IDN60801

Issued at 8:05 am EST Wednesday 3 September 2014 (issued every 30 minutes, with the page automatically refreshed every 10 minutes)

About weather observations | Map of weather stations | Latest weather observations for NSW | Other Formats
Station Details ID: 084016 Name: GABO ISLAND LIGHTHOUSE Lat: -37.57 Lon: 149.92 Height: 15.2 m
Data from the previous 72 hours. | See also: Recent months at Gabo Island
Date/Time
EST
Temp
°C
App
Temp
°C
Dew
Point
Rel
Hum
%
Delta-T
°C
Wind Press
QNH
hPa
Press
MSL
hPa
Rain
since 9 am
mm
Dir
 
Spd
km/h
Gust
km/h
Spd
kts
Gust
kts
03/08:00am 11.6 -0.3 7.0 73 2.2 SSW 59 72 32 39 1017.3 - 15.8
03/07:30am 12.2 0.0 5.8 65 3.0 SSW 59 70 32 38 1017.0 - 15.8
03/07:00am 12.2 1.4 6.0 66 2.9 SSW 52 69 28 37 1016.8 - 15.8
03/06:32am 11.3 -1.1 6.4 72 2.3 S 61 80 33 43 1016.7 - 15.8
03/06:30am 11.4 -1.4 6.3 71 2.4 S 63 80 34 43 1016.7 - 15.8
03/06:14am 12.7 0.3 6.4 65 3.0 SSW 61 80 33 43 1016.3 - 15.8
03/06:00am 12.5 0.0 6.1 65 3.0 SSW 61 74 33 40 1016.2 1016.2 15.8
03/05:45am 12.2 -0.1 5.3 62 3.2 SSW 59 80 32 43 1016.0 - 15.8
03/05:30am 12.3 0.5 5.9 65 3.0 SSW 57 70 31 38 1015.9 - 15.8
03/05:09am 11.9 0.0 6.9 71 2.4 S 59 80 32 43 1016.0 - 15.8
03/05:00am 11.6 -0.8 6.3 70 2.5 S 61 74 33 40 1015.9 - 15.8
03/04:44am 11.1 -1.1 5.4 68 2.6 S 59 78 32 42 1015.8 - 15.8
03/04:30am 11.9 -0.3 7.3 73 2.2 S 61 78 33 42 1015.6 - 15.8
03/04:00am 11.4 -1.1 6.0 69 2.5 S 61 76 33 41 1015.3 - 15.8
03/03:53am 11.7 1.3 7.8 77 1.9 S 52 70 28 38 1015.3 - 15.8
03/03:30am 11.3 0.1 5.9 69 2.5 S 54 65 29 35 1015.5 - 15.4
03/03:17am 11.8 0.9 7.2 73 2.2 S 54 85 29 46 1015.2 - 15.4
03/03:00am 12.4 1.1 7.2 70 2.5 SW 56 67 30 36 1015.0 1015.0 15.4
03/02:30am 12.0 0.1 7.2 72 2.3 SW 59 72 32 39 1015.0 - 15.4
03/02:00am 11.8 -1.3 6.8 71 2.4 SSW 65 78 35 42 1015.5 - 15.4
03/01:59am 11.8 -1.3 6.8 71 2.4 SW 65 82 35 44 1015.5 - 15.4
03/01:30am 12.5 -0.4 6.1 65 3.0 S 63 76 34 41 1015.5 - 15.4
03/01:00am 12.8 -0.6 5.5 61 3.4 SSW 65 76 35 41 1015.3 - 15.4
03/12:30am 12.8 0.4 6.3 64 3.1 SSW 61 76 33 41 1015.3 - 15.4
03/12:00am 12.7 -0.3 5.6 62 3.3 SSW 63 76 34 41 1015.4 1015.4 15.4
 
Date/Time
EST
Temp
°C
App
Temp
°C
Dew
Point
Rel
Hum
%
Delta-T
°C
Wind Press
QNH
hPa
Press
MSL
hPa
Rain
since 9 am
mm
Dir
 
Spd
km/h
Gust
km/h
Spd
kts
Gust
kts
02/11:32pm 12.2 0.4 5.8 65 3.0 S 57 76 31 41 1015.5 - 15.4
02/11:30pm 12.3 1.0 7.1 70 2.5 S 56 70 30 38 1015.5 - 15.4
02/11:04pm 11.4 1.1 8.1 80 1.6 S 52 70 28 38 1015.7 - 15.2
02/11:00pm 11.6 0.8 7.7 77 1.9 S 54 69 29 37 1015.9 - 14.8
02/10:30pm 12.9 0.4 5.9 62 3.3 SSW 61 72 33 39 1015.7 - 14.8
02/10:00pm 12.9 -0.2 6.6 65 3.0 SSW 65 80 35 43 1015.7 - 14.8
02/09:30pm 12.7 0.4 6.9 68 2.8 SSW 61 76 33 41 1015.7 - 14.8
02/09:02pm 13.0 0.3 7.0 67 2.9 SSW 63 82 34 44 1015.5 - 14.8
02/09:00pm 13.0 0.0 7.2 68 2.8 SSW 65 82 35 44 1015.5 1015.5 14.8
02/08:30pm 12.6 -1.1 7.5 71 2.5 S 69 87 37 47 1015.4 - 14.8
02/08:01pm 8.6 -3.7 8.4 99 0.1 S 63 82 34 44 1015.7 - 14.4
02/08:00pm 10.1 -2.5 8.7 91 0.7 SSW 65 82 35 44 1015.6 - 13.8
02/07:30pm 13.1 0.6 6.1 62 3.3 S 61 80 33 43 1014.7 - 13.2
02/07:10pm 12.8 -0.1 5.8 62 3.3 SSW 63 82 34 44 1014.5 - 13.2
02/07:00pm 12.6 -1.2 7.2 69 2.6 SSW 69 82 37 44 1014.5 - 13.2
02/06:49pm 13.1 0.5 7.1 67 2.9 S 63 82 34 44 1014.2 - 13.2
02/06:30pm 13.0 -1.3 4.7 57 3.8 S 69 82 37 44 1014.0 - 13.2
02/06:09pm 13.2 -1.0 5.3 58 3.7 S 69 87 37 47 1013.7 - 13.2
02/06:00pm 13.0 -1.2 6.0 62 3.3 S 70 87 38 47 1013.3 1013.3 13.2
02/05:32pm 12.9 -0.7 6.4 64 3.1 S 67 85 36 46 1012.6 - 13.2
02/05:30pm 12.9 -0.5 6.9 67 2.9 S 67 80 36 43 1012.6 - 13.2
02/05:04pm 13.1 -0.6 7.4 68 2.8 S 69 87 37 47 1012.0 - 13.2
02/05:00pm 13.3 -0.4 8.1 71 2.6 S 70 87 38 47 1011.9 - 13.2
02/04:30pm 13.3 -0.4 7.6 68 2.8 S 69 87 37 47 1011.2 - 13.2
02/04:24pm 13.1 0.2 7.6 69 2.7 S 65 83 35 45 1011.1 - 13.2
02/04:00pm 12.8 -0.6 8.8 76 2.0 S 69 83 37 45 1010.7 - 13.2
02/03:53pm 12.6 -0.1 8.4 75 2.1 S 65 83 35 45 1010.6 - 13.2
02/03:30pm 12.2 -1.3 9.2 82 1.5 S 70 87 38 47 1010.4 - 13.0
02/03:20pm 12.5 1.5 9.3 81 1.6 SSW 57 78 31 42 1010.1 - 13.0
02/03:00pm 11.9 1.6 9.5 85 1.2 SSW 54 65 29 35 1010.3 1010.3 13.0
02/02:32pm 11.0 -1.5 9.2 89 0.9 SSW 65 83 35 45 1010.2 - 11.6
02/02:30pm 10.9 -2.1 8.7 86 1.1 SSW 67 83 36 45 1010.1 - 11.6
02/02:00pm 10.5 -2.7 9.3 92 0.6 SSW 69 89 37 48 1009.6 - 9.2
02/01:57pm 11.7 -1.1 9.7 87 1.0 SSW 67 89 36 48 1009.4 - 8.8
02/01:52pm 11.8 -0.3 9.2 84 1.3 SSW 63 69 34 37 1009.5 - 8.6
02/01:47pm 11.3 3.8 9.5 89 0.9 SW 39 59 21 32 1009.8 - 8.6
02/01:46pm 11.4 4.3 9.6 89 0.9 SW 37 48 20 26 1009.9 - 8.6
02/01:37pm 11.3 5.2 10.3 94 0.5 WSW 33 52 18 28 1009.7 - 8.4
02/01:30pm 10.8 4.1 9.6 92 0.6 WSW 35 52 19 28 1009.9 - 7.4
02/01:29pm 11.0 4.3 9.6 91 0.7 SW 35 52 19 28 1009.9 - 7.0
02/01:00pm 11.1 5.9 8.7 85 1.2 SW 26 33 14 18 1010.0 - 5.4
02/12:30pm 10.5 3.0 9.5 93 0.5 WSW 39 52 21 28 1010.4 - 4.6
02/12:04pm 11.0 3.5 9.4 90 0.8 WSW 39 59 21 32 1010.5 - 2.8
02/12:00pm 11.2 1.2 9.2 87 1.0 SSW 52 59 28 32 1010.6 1010.6 2.6
02/11:56am 11.2 0.6 8.6 84 1.3 SSW 54 59 29 32 1010.5 - 2.4
02/11:43am 11.0 2.8 9.6 91 0.7 WSW 43 63 23 34 1010.4 - 2.0
02/11:30am 11.5 2.7 9.5 87 1.0 SW 46 56 25 30 1010.0 - 0.6
02/11:00am 11.3 1.1 9.9 91 0.7 WSW 54 69 29 37 1010.0 - 0.6
02/10:33am 11.9 1.8 8.9 82 1.5 WSW 52 74 28 40 1009.7 - 0.0
02/10:30am 11.5 2.4 9.7 89 0.9 WSW 48 63 26 34 1009.7 - 0.0
02/10:00am 12.1 2.6 9.7 85 1.2 WSW 50 63 27 34 1009.9 - 0.0
02/09:30am 11.9 1.1 9.1 83 1.4 SW 56 69 30 37 1009.6 - 0.0
02/09:00am 11.1 2.6 9.1 87 1.0 WSW 44 59 24 32 1009.6 1009.6 6.6
02/08:30am 11.6 3.5 10.2 91 0.7 WSW 43 54 23 29 1009.4 - 6.6
02/08:00am 11.4 2.6 9.4 87 1.0 WSW 46 57 25 31 1009.0 - 6.6
02/07:30am 11.2 2.8 9.0 86 1.1 W 43 56 23 30 1009.0 - 6.6
02/07:00am 11.0 2.5 9.2 89 0.9 W 44 54 24 29 1008.7 - 6.4
02/06:30am 10.9 2.6 9.5 91 0.7 W 43 57 23 31 1008.6 - 6.4
02/06:00am 10.9 3.4 9.3 90 0.8 W 39 50 21 27 1008.5 1008.5 6.0
02/05:30am 10.8 4.0 9.2 90 0.8 W 35 46 19 25 1008.7 - 5.8
02/05:00am 10.8 4.6 9.4 91 0.7 W 32 39 17 21 1008.7 - 5.6
02/04:30am 10.6 4.4 9.4 92 0.6 W 32 39 17 21 1008.6 - 5.0
02/04:00am 10.8 4.5 9.6 92 0.6 W 33 43 18 23 1008.6 - 4.0
02/03:30am 10.7 4.9 9.5 92 0.6 W 30 37 16 20 1008.6 - 2.8
02/03:00am 11.0 6.0 9.6 91 0.7 W 26 32 14 17 1008.6 1008.6 2.2
02/02:30am 11.3 6.3 9.7 90 0.8 WSW 26 32 14 17 1008.9 - 1.8
02/02:00am 11.6 6.7 9.8 89 0.9 WSW 26 33 14 18 1009.2 - 1.6
02/01:30am 12.1 6.5 10.2 88 1.0 SW 30 37 16 20 1009.4 - 0.8
02/01:00am 12.5 7.0 10.6 88 1.0 SW 30 37 16 20 1009.3 - 0.6
02/12:30am 12.5 8.3 11.0 90 0.8 WSW 24 30 13 16 1009.4 - 0.4
02/12:00am 12.5 8.6 10.8 89 0.9 WSW 22 26 12 14 1009.2 1009.2 0.2
 
Date/Time
EST
Temp
°C
App
Temp
°C
Dew
Point
Rel
Hum
%
Delta-T
°C
Wind Press
QNH
hPa
Press
MSL
hPa
Rain
since 9 am
mm
Dir
 
Spd
km/h
Gust
km/h
Spd
kts
Gust
kts
01/11:30pm 12.7 8.7 10.6 87 1.1 WSW 22 26 12 14 1009.2 - 0.0
01/11:00pm 13.0 9.4 10.7 86 1.2 WSW 20 24 11 13 1009.4 - 0.0
01/10:30pm 12.9 9.1 11.0 88 1.0 WSW 22 28 12 15 1009.4 - 0.0
01/10:00pm 13.3 7.0 11.0 86 1.2 SW 35 43 19 23 1009.4 - 0.0
01/09:30pm 13.9 5.7 10.5 80 1.8 SW 44 52 24 28 1009.4 - 0.0
01/09:00pm 14.3 5.5 10.9 80 1.8 SW 48 57 26 31 1009.3 1009.3 0.0
01/08:30pm 15.0 5.1 11.1 77 2.1 SW 54 65 29 35 1009.0 - 0.0
01/08:00pm 15.5 7.6 11.4 76 2.2 WSW 44 63 24 34 1008.5 - 0.0
01/07:53pm 15.9 9.3 11.3 74 2.5 SW 37 63 20 34 1007.7 - 0.0
01/07:49pm 16.5 10.7 9.6 63 3.6 W 30 43 16 23 1008.1 - 0.0
01/07:30pm 16.1 12.2 9.4 64 3.5 N 20 24 11 13 1006.9 - 0.0
01/07:00pm 15.8 11.9 10.7 71 2.7 NNE 22 28 12 15 1006.7 - 0.0
01/06:30pm 15.8 11.9 10.9 72 2.6 NNE 22 28 12 15 1006.9 - 0.0
01/06:00pm 16.1 12.2 10.7 70 2.9 N 22 28 12 15 1006.9 1006.9 0.0
01/05:30pm 15.7 13.6 11.2 74 2.4 NNE 13 19 7 10 1006.8 - 0.0
01/05:00pm 15.7 12.3 11.4 75 2.3 N 20 24 11 13 1006.9 - 0.0
01/04:30pm 15.8 13.1 11.8 77 2.2 NNE 17 24 9 13 1006.9 - 0.0
01/04:00pm 16.5 14.8 11.1 70 2.9 NNE 11 13 6 7 1007.3 - 0.0
01/03:30pm 16.2 13.5 11.6 74 2.5 NE 17 24 9 13 1007.4 - 0.0
01/03:00pm 16.1 13.6 12.3 78 2.1 NNE 17 20 9 11 1007.5 1007.5 0.0
01/02:30pm 16.3 13.2 12.1 76 2.3 NNE 20 26 11 14 1007.5 - 0.0
01/02:00pm 17.3 14.8 12.4 73 2.7 NE 17 19 9 10 1007.9 - 0.0
01/01:30pm 17.9 15.0 12.3 70 3.1 NE 19 24 10 13 1008.3 - 0.0
01/01:00pm 18.4 15.6 11.5 64 3.8 NNE 17 20 9 11 1008.7 - 0.0
01/12:30pm 17.3 14.1 11.8 70 3.0 NE 20 24 11 13 1008.8 - 0.0
01/12:00pm 16.8 13.8 10.8 67 3.2 NNE 17 20 9 11 1009.6 1009.6 0.0
01/11:30am 16.0 11.1 9.9 67 3.2 NE 26 32 14 17 1009.9 - 0.0
01/11:00am 16.9 13.4 10.1 64 3.6 NE 19 24 10 13 1010.4 - 0.0
01/10:30am 18.2 15.0 9.9 58 4.4 NE 17 20 9 11 1010.7 - 0.0
01/10:00am 16.9 13.9 9.4 61 3.9 N 15 17 8 9 1011.0 - 0.0
01/09:30am 16.0 14.1 9.0 63 3.6 NNE 9 11 5 6 1011.5 - 0.0
01/09:00am 14.8 13.1 8.5 66 3.2 NE 7 9 4 5 1011.8 1011.8 0.2
01/08:30am 15.2 14.6 8.9 66 3.2 N 2 6 1 3 1012.2 - 0.2
01/08:00am 13.7 12.0 8.3 70 2.7 NNE 7 9 4 5 1012.4 - 0.2
01/07:30am 12.4 10.3 8.1 75 2.1 N 9 11 5 6 1012.3 - 0.2
01/07:00am 12.6 10.1 9.7 82 1.5 NNE 13 15 7 8 1012.1 - 0.2
01/06:30am 12.4 9.7 10.3 87 1.1 N 15 19 8 10 1012.4 - 0.2
01/06:00am 13.0 10.0 10.7 86 1.2 N 17 24 9 13 1012.2 1012.2 0.2
01/05:30am 12.5 9.0 10.2 86 1.2 N 19 22 10 12 1012.2 - 0.2
01/05:00am 13.1 9.6 10.8 86 1.2 NNE 20 24 11 13 1012.2 - 0.2
01/04:30am 13.2 9.8 10.5 84 1.4 NNE 19 24 10 13 1012.2 - 0.2
01/04:00am 13.0 9.3 10.3 84 1.4 NNE 20 24 11 13 1012.3 - 0.2
01/03:30am 12.7 9.1 10.4 86 1.2 NNE 20 24 11 13 1012.4 - 0.2
01/03:00am 12.6 9.1 10.3 86 1.2 N 19 22 10 12 1012.8 1012.8 0.2
01/02:30am 12.8 10.2 10.7 87 1.1 NNE 15 17 8 9 1013.1 - 0.0
01/02:00am 12.4 9.4 10.5 88 1.0 N 17 20 9 11 1013.5 - 0.0
01/01:30am 12.5 9.7 11.2 92 0.7 N 17 22 9 12 1013.7 - 0.0
01/01:00am 12.8 9.7 11.5 92 0.7 N 19 24 10 13 1014.3 - 0.0
01/12:30am 12.5 10.0 11.2 92 0.7 N 15 22 8 12 1014.6 - 0.0
01/12:00am 13.6 9.2 11.7 88 1.0 NNE 26 33 14 18 1014.5 1014.5 0.0
 
Date/Time
EST
Temp
°C
App
Temp
°C
Dew
Point
Rel
Hum
%
Delta-T
°C
Wind Press
QNH
hPa
Press
MSL
hPa
Rain
since 9 am
mm
Dir
 
Spd
km/h
Gust
km/h
Spd
kts
Gust
kts
31/11:30pm 13.7 9.3 11.6 87 1.1 NNE 26 30 14 16 1014.8 - 0.0
31/11:00pm 13.2 9.3 12.1 93 0.6 NNE 24 32 13 17 1015.2 - 0.0
31/10:30pm 12.6 9.5 11.5 93 0.6 N 19 24 10 13 1015.5 - 0.0
31/10:00pm 12.9 10.1 11.4 91 0.8 N 17 20 9 11 1016.0 - 0.0
31/09:30pm 12.9 9.8 11.6 92 0.7 N 19 22 10 12 1016.3 - 0.0
31/09:00pm 13.2 10.1 11.7 91 0.8 NNE 19 22 10 12 1016.5 1016.5 0.0
31/08:30pm 13.3 9.7 12.0 92 0.7 NNE 22 28 12 15 1016.4 - 0.0
31/08:00pm 13.4 10.4 12.1 92 0.7 NNE 19 24 10 13 1016.3 - 0.0
31/07:30pm 13.5 9.9 12.0 91 0.8 NNE 22 26 12 14 1016.5 - 0.0
31/07:00pm 14.1 10.3 12.3 89 1.0 NNE 24 28 13 15 1016.4 - 0.0
31/06:30pm 14.3 10.5 12.3 88 1.1 NNE 24 30 13 16 1016.4 - 0.0
31/06:00pm 14.5 9.9 12.3 87 1.2 NNE 28 33 15 18 1016.2 1016.2 0.0
31/05:30pm 14.8 10.5 12.2 84 1.4 NNE 26 32 14 17 1016.1 - 0.0
31/05:00pm 15.2 10.5 12.1 82 1.7 NNE 28 33 15 18 1016.0 - 0.0
31/04:30pm 15.5 10.9 12.2 81 1.8 NE 28 32 15 17 1016.0 - 0.0
31/04:00pm 15.8 11.5 12.1 78 2.0 NE 26 30 14 16 1016.1 - 0.0
31/03:30pm 16.1 11.9 12.3 78 2.1 NE 26 30 14 16 1016.2 - 0.0
31/03:00pm 16.3 12.0 11.9 75 2.4 NE 26 30 14 16 1016.5 1016.5 0.0
31/02:30pm 16.6 12.3 12.2 75 2.4 NE 26 30 14 16 1016.7 - 0.0
31/02:00pm 16.7 12.4 12.1 74 2.5 NE 26 30 14 16 1016.9 - 0.0
31/01:30pm 16.7 11.9 11.5 71 2.8 NE 28 30 15 16 1017.1 - 0.0
31/01:00pm 16.5 11.3 11.7 73 2.6 NE 30 32 16 17 1017.4 - 0.0
31/12:30pm 16.7 12.0 11.9 73 2.6 NE 28 30 15 16 1017.9 - 0.0
31/12:00pm 16.3 11.8 11.5 73 2.6 NE 26 30 14 16 1018.3 1018.3 0.0
31/11:30am 16.3 11.9 11.7 74 2.5 NE 26 30 14 16 1018.7 - 0.0
31/11:00am 16.1 11.6 11.5 74 2.5 NE 26 30 14 16 1019.0 - 0.0
31/10:30am 15.5 12.3 11.8 78 2.0 ENE 20 22 11 12 1019.5 - 0.0
31/10:00am 14.0 13.3 12.0 88 1.1 S 7 9 4 5 1020.0 - 0.0
31/09:30am 13.7 13.1 11.8 88 1.0 S 6 7 3 4 1020.2 - 0.0
31/09:00am 12.9 12.0 11.2 89 0.9 SW 7 9 4 5 1020.4 1020.4 2.0
31/08:30am 13.4 12.9 11.9 91 0.8 E 6 7 3 4 1020.4 - 2.0

Other Formats:

Comma delimited format used in spreadsheet applications
http://www.bom.gov.au/fwo/IDN60801/IDN60801.94933.axf

JavaScript Object Notation format (JSON) in row-major order
http://www.bom.gov.au/fwo/IDN60801/IDN60801.94933.json